Time;durP1;ratioP1;P1;durP2;ratioP2;P2;SDS_P1;SDS_P2;PMS_P1;PMS_P2;Temp;Humidity;BMP_temperature;BMP_pressure;BME280_temperature;BME280_humidity;BME280_pressure;Samples;Min_cycle;Max_cycle;Signal;HPM_P1;HPM_P2
2023/06/09 00:02:20;;;;;;;18.58;6.88;;;12.90;99.90;;;;;;6302083;22;20015;-76
2023/06/09 00:04:46;;;;;;;13.18;6.25;;;13.00;99.90;;;;;;6250771;22;20038;-76
2023/06/09 00:07:15;;;;;;;18.00;7.93;;;12.90;99.90;;;;;;6250267;22;20442;-76
2023/06/09 00:09:42;;;;;;;18.40;8.25;;;12.90;99.90;;;;;;6224487;22;20035;-76
2023/06/09 00:12:08;;;;;;;15.02;7.28;;;12.80;99.90;;;;;;6225177;22;20322;-76
2023/06/09 00:14:34;;;;;;;19.65;8.00;;;12.90;99.90;;;;;;6250633;22;20042;-76
2023/06/09 00:17:01;;;;;;;17.13;7.97;;;12.90;99.90;;;;;;6224853;22;20018;-76
2023/06/09 00:19:27;;;;;;;18.65;7.63;;;12.90;99.90;;;;;;6249742;22;20449;-76
2023/06/09 00:21:53;;;;;;;19.88;7.70;;;12.90;99.90;;;;;;6250225;22;20018;-76
2023/06/09 00:24:21;;;;;;;16.50;7.25;;;12.90;99.90;;;;;;6250637;22;20012;-76
2023/06/09 00:26:51;;;;;;;18.52;7.47;;;13.00;99.90;;;;;;6224427;22;20054;-76
2023/06/09 00:29:18;;;;;;;16.30;7.53;;;12.90;99.90;;;;;;6250256;22;20015;-75
2023/06/09 00:31:44;;;;;;;20.67;7.85;;;12.90;99.90;;;;;;6250460;22;20047;-76
2023/06/09 00:34:10;;;;;;;17.08;6.93;;;12.90;99.90;;;;;;6275653;22;20012;-76
2023/06/09 00:36:36;;;;;;;18.70;8.48;;;12.90;99.90;;;;;;6225260;22;20077;-76
2023/06/09 00:39:02;;;;;;;17.90;8.23;;;12.90;99.90;;;;;;6250030;22;20019;-75
2023/06/09 00:41:28;;;;;;;20.42;6.90;;;12.80;99.90;;;;;;6224979;22;20019;-76
2023/06/09 00:43:55;;;;;;;16.42;6.63;;;12.90;99.90;;;;;;6225211;22;20346;-76
2023/06/09 00:46:22;;;;;;;14.75;6.40;;;12.90;99.90;;;;;;6224867;22;20011;-76
2023/06/09 00:48:49;;;;;;;16.27;6.35;;;12.90;99.90;;;;;;6224591;22;20012;-75
2023/06/09 00:51:15;;;;;;;17.67;7.43;;;12.80;99.90;;;;;;6250410;22;20008;-75
2023/06/09 00:53:41;;;;;;;16.52;7.07;;;12.80;99.90;;;;;;6225029;22;20008;-75
2023/06/09 00:56:07;;;;;;;20.38;7.85;;;12.70;99.90;;;;;;6249664;22;20039;-75
2023/06/09 00:58:32;;;;;;;16.15;6.32;;;12.70;99.90;;;;;;6249441;22;20039;-76
2023/06/09 01:00:59;;;;;;;21.92;8.10;;;12.70;99.90;;;;;;6250127;22;20062;-76
2023/06/09 01:03:26;;;;;;;17.60;7.95;;;12.70;99.90;;;;;;6224761;22;20018;-75
2023/06/09 01:06:02;;;;;;;18.38;6.80;;;12.70;99.90;;;;;;6250046;22;20016;-75
2023/06/09 01:08:36;;;;;;;17.80;7.65;;;12.70;99.90;;;;;;6224664;22;20015;-76
2023/06/09 01:11:14;;;;;;;17.23;7.43;;;12.60;99.90;;;;;;6249636;22;20016;-76
2023/06/09 01:14:06;;;;;;;16.65;7.43;;;12.60;99.90;;;;;;6250177;22;20015;-76
2023/06/09 01:16:38;;;;;;;15.15;7.00;;;12.60;99.90;;;;;;6224420;22;20169;-76
2023/06/09 01:19:11;;;;;;;20.38;7.53;;;12.60;99.90;;;;;;6250099;22;20012;-75
2023/06/09 01:21:43;;;;;;;17.98;7.65;;;12.60;99.90;;;;;;6224222;22;20030;-75
2023/06/09 01:24:30;;;;;;;16.42;6.57;;;12.70;99.90;;;;;;6224911;22;20057;-75
2023/06/09 01:26:59;;;;;;;17.35;7.78;;;12.60;99.90;;;;;;6223708;22;20008;-76
2023/06/09 01:29:26;;;;;;;18.85;7.25;;;12.60;99.90;;;;;;6224815;22;20441;-75
2023/06/09 01:31:53;;;;;;;20.73;8.40;;;12.60;99.90;;;;;;6224672;22;20125;-75
2023/06/09 01:34:20;;;;;;;19.17;7.90;;;12.60;99.90;;;;;;6224602;22;20463;-76
2023/06/09 01:36:47;;;;;;;19.38;8.07;;;12.60;99.90;;;;;;6249429;22;20012;-76
2023/06/09 01:39:13;;;;;;;17.15;8.07;;;12.50;99.90;;;;;;6224656;22;20016;-76
2023/06/09 01:41:40;;;;;;;19.95;7.80;;;12.40;99.90;;;;;;6223802;22;20011;-75
2023/06/09 01:44:05;;;;;;;17.42;6.90;;;12.60;99.90;;;;;;6275269;22;20018;-77
2023/06/09 01:46:31;;;;;;;20.20;8.63;;;12.60;99.90;;;;;;6224290;22;20007;-76
2023/06/09 01:49:10;;;;;;;16.13;8.05;;;12.60;99.90;;;;;;6275056;22;20450;-76
2023/06/09 01:52:05;;;;;;;15.45;7.68;;;12.50;99.90;;;;;;6249781;22;20061;-76
2023/06/09 01:54:48;;;;;;;19.55;8.13;;;12.50;99.90;;;;;;6224643;22;20019;-76
2023/06/09 01:57:35;;;;;;;18.20;8.35;;;12.40;99.90;;;;;;6223191;22;20011;-75
2023/06/09 02:00:04;;;;;;;16.95;7.32;;;12.40;99.90;;;;;;6248338;22;20023;-76
2023/06/09 02:02:33;;;;;;;15.18;7.70;;;12.40;99.90;;;;;;6247476;22;20057;-76
2023/06/09 02:05:00;;;;;;;18.52;7.55;;;12.40;99.90;;;;;;6220714;22;20018;-76
2023/06/09 02:07:27;;;;;;;18.70;7.18;;;12.40;99.90;;;;;;6221936;22;20350;-76
2023/06/09 02:09:54;;;;;;;21.75;8.27;;;12.30;99.90;;;;;;6223178;22;20016;-76
2023/06/09 02:12:20;;;;;;;17.65;7.75;;;12.30;99.90;;;;;;6248618;22;20346;-76
2023/06/09 02:14:46;;;;;;;23.60;8.02;;;12.30;99.90;;;;;;6274243;22;20016;-76
2023/06/09 02:17:12;;;;;;;17.70;7.18;;;12.30;99.90;;;;;;6222706;22;20018;-76
2023/06/09 02:19:38;;;;;;;19.58;7.88;;;12.30;99.90;;;;;;6248934;22;20011;-76
2023/06/09 02:22:08;;;;;;;16.45;7.18;;;12.30;99.90;;;;;;6248660;22;20016;-76
2023/06/09 02:24:34;;;;;;;16.65;7.22;;;12.40;99.90;;;;;;6248213;22;20008;-76
2023/06/09 02:27:01;;;;;;;18.05;7.35;;;12.30;99.90;;;;;;6248378;22;20043;-76
2023/06/09 02:29:27;;;;;;;20.30;7.50;;;12.30;99.90;;;;;;6222798;22;20011;-76
2023/06/09 02:31:54;;;;;;;19.88;7.93;;;12.30;99.90;;;;;;6223218;22;20350;-76
2023/06/09 02:34:22;;;;;;;17.42;8.93;;;12.40;99.90;;;;;;6222880;22;20043;-76
2023/06/09 02:36:54;;;;;;;16.65;7.68;;;12.30;99.90;;;;;;6223834;22;20008;-76
2023/06/09 02:39:23;;;;;;;21.27;8.63;;;12.40;99.90;;;;;;6248251;22;20070;-76
2023/06/09 02:41:48;;;;;;;18.88;7.90;;;12.30;99.90;;;;;;6222379;22;20051;-75
2023/06/09 02:44:15;;;;;;;18.25;7.70;;;12.30;99.90;;;;;;6223201;22;20446;-76
2023/06/09 02:46:42;;;;;;;18.48;7.82;;;12.30;99.90;;;;;;6223136;22;20025;-76
2023/06/09 02:49:08;;;;;;;19.25;9.02;;;12.30;99.90;;;;;;6248052;22;20057;-76
2023/06/09 02:51:34;;;;;;;20.27;8.27;;;12.20;99.90;;;;;;6223897;22;20012;-76
2023/06/09 02:54:00;;;;;;;18.85;8.60;;;12.20;99.90;;;;;;6268798;22;20016;-75
2023/06/09 02:56:26;;;;;;;18.75;8.35;;;12.20;99.90;;;;;;6272955;22;20012;-76
2023/06/09 02:58:53;;;;;;;16.92;8.25;;;12.20;99.90;;;;;;6248391;22;20014;-76
2023/06/09 03:01:20;;;;;;;18.75;7.90;;;12.20;99.90;;;;;;6223756;22;20007;-76
2023/06/09 03:03:46;;;;;;;17.25;8.50;;;12.20;99.90;;;;;;6249340;22;20012;-75
2023/06/09 03:06:13;;;;;;;17.42;8.05;;;12.20;99.90;;;;;;6248433;22;20007;-75
2023/06/09 03:08:43;;;;;;;19.58;9.70;;;12.10;99.90;;;;;;6223080;22;20472;-75
2023/06/09 03:11:09;;;;;;;21.80;8.68;;;12.10;99.90;;;;;;6249248;22;20008;-76
2023/06/09 03:13:35;;;;;;;20.80;7.95;;;12.20;99.90;;;;;;6248663;22;20047;-76
2023/06/09 03:16:02;;;;;;;25.63;8.85;;;12.10;99.90;;;;;;6223444;22;20331;-76
2023/06/09 03:18:28;;;;;;;20.70;9.30;;;12.20;99.90;;;;;;6275852;22;20058;-76
2023/06/09 03:20:55;;;;;;;19.40;8.68;;;12.10;99.90;;;;;;6225258;22;20446;-75
2023/06/09 03:23:21;;;;;;;17.92;7.50;;;12.10;99.90;;;;;;6250161;22;20066;-75
2023/06/09 03:25:49;;;;;;;18.25;7.95;;;12.20;99.90;;;;;;6250482;22;20087;-75
2023/06/09 03:28:15;;;;;;;23.75;10.05;;;12.20;99.90;;;;;;6224886;22;20041;-76
2023/06/09 03:30:41;;;;;;;18.88;8.73;;;12.10;99.90;;;;;;6225756;22;20094;-76
2023/06/09 03:33:06;;;;;;;18.13;7.80;;;12.20;99.90;;;;;;6275040;22;20360;-75
2023/06/09 03:35:32;;;;;;;17.30;8.20;;;12.20;99.90;;;;;;6251044;22;20070;-76
2023/06/09 03:37:57;;;;;;;20.55;9.13;;;12.20;99.90;;;;;;6250039;22;20031;-75
2023/06/09 03:40:23;;;;;;;21.13;8.80;;;12.20;99.90;;;;;;6275957;22;20011;-76
2023/06/09 03:42:48;;;;;;;17.48;8.43;;;12.20;99.90;;;;;;6224589;22;20016;-76
2023/06/09 03:45:14;;;;;;;16.55;8.80;;;12.20;99.90;;;;;;6301567;22;20008;-75
2023/06/09 03:47:40;;;;;;;19.38;8.48;;;12.20;99.90;;;;;;6224338;22;20011;-75
2023/06/09 03:50:06;;;;;;;20.40;8.45;;;12.30;99.90;;;;;;6250264;22;20415;-76
2023/06/09 03:52:32;;;;;;;18.35;8.52;;;12.20;99.90;;;;;;6224870;22;20012;-76
2023/06/09 03:54:57;;;;;;;18.90;9.18;;;12.30;99.90;;;;;;6224925;22;20086;-75
2023/06/09 03:57:23;;;;;;;17.13;8.10;;;12.30;99.90;;;;;;6275037;22;20011;-75
2023/06/09 03:59:49;;;;;;;15.93;8.18;;;12.30;99.90;;;;;;6249667;22;20068;-75
2023/06/09 04:02:14;;;;;;;18.73;8.23;;;12.30;99.90;;;;;;6302006;22;20034;-75
2023/06/09 04:04:40;;;;;;;18.00;8.27;;;12.30;99.90;;;;;;6224183;22;20066;-75
2023/06/09 04:07:05;;;;;;;18.15;8.02;;;12.30;99.90;;;;;;6275696;22;20022;-75
2023/06/09 04:09:34;;;;;;;20.17;8.52;;;12.30;99.90;;;;;;6224318;22;20095;-74
2023/06/09 04:12:00;;;;;;;16.00;7.82;;;12.30;99.90;;;;;;6224978;22;20011;-75
2023/06/09 04:14:26;;;;;;;18.92;8.25;;;12.40;99.90;;;;;;6248406;22;20020;-75
2023/06/09 04:16:51;;;;;;;16.17;8.88;;;12.40;99.90;;;;;;6250660;22;20023;-76
2023/06/09 04:19:17;;;;;;;20.70;8.75;;;12.40;99.90;;;;;;6300528;22;20034;-76
2023/06/09 04:21:43;;;;;;;19.17;9.10;;;12.40;99.90;;;;;;6249918;22;20437;-76
2023/06/09 04:24:10;;;;;;;20.70;8.30;;;12.50;99.90;;;;;;6249765;22;20012;-75
2023/06/09 04:26:39;;;;;;;17.40;7.65;;;12.60;99.90;;;;;;6250021;22;20014;-75
2023/06/09 04:29:09;;;;;;;18.45;8.02;;;12.60;99.90;;;;;;6300208;22;20088;-75
2023/06/09 04:31:37;;;;;;;22.52;8.13;;;12.60;99.90;;;;;;6249665;22;20054;-75
2023/06/09 04:34:09;;;;;;;22.45;8.02;;;12.60;99.90;;;;;;6248763;22;20437;-75
2023/06/09 04:36:35;;;;;;;;;;;12.60;99.90;;;;;;6275396;22;20442;-76
2023/06/09 04:39:03;;;;;;;18.65;8.18;;;12.60;99.90;;;;;;6224008;22;19933;-76
2023/06/09 04:41:31;;;;;;;19.02;8.63;;;12.60;99.90;;;;;;6250301;22;20453;-75
2023/06/09 04:44:03;;;;;;;22.35;8.52;;;12.60;99.90;;;;;;6223310;22;20050;-75
2023/06/09 04:46:37;;;;;;;20.23;8.13;;;12.60;99.90;;;;;;6250044;22;20014;-75
2023/06/09 04:49:09;;;;;;;19.85;8.48;;;12.60;99.90;;;;;;6248776;22;20030;-75
2023/06/09 04:51:48;;;;;;;18.17;7.90;;;12.60;99.90;;;;;;6224707;22;20500;-76
2023/06/09 04:54:18;;;;;;;19.67;7.95;;;12.70;99.90;;;;;;6224259;22;20238;-76
2023/06/09 04:56:45;;;;;;;21.33;8.52;;;12.90;99.90;;;;;;6224960;22;20065;-76
2023/06/09 04:59:16;;;;;;;22.75;8.57;;;12.90;99.90;;;;;;6223583;22;20008;-76
2023/06/09 05:01:46;;;;;;;19.92;8.88;;;13.00;99.90;;;;;;6223876;22;20016;-75
2023/06/09 05:04:12;;;;;;;19.90;7.93;;;13.10;99.90;;;;;;6247466;22;20019;-76
2023/06/09 05:06:38;;;;;;;17.05;8.10;;;13.10;99.90;;;;;;6249574;22;20015;-75
2023/06/09 05:09:07;;;;;;;18.10;8.43;;;13.20;99.90;;;;;;6300130;22;20003;-75
2023/06/09 05:11:34;;;;;;;21.65;9.27;;;13.20;99.90;;;;;;6224454;22;20012;-75
2023/06/09 05:14:00;;;;;;;23.75;8.85;;;13.20;99.90;;;;;;6222518;22;20019;-77
2023/06/09 05:16:27;;;;;;;18.20;8.35;;;13.20;99.90;;;;;;6224389;22;20012;-76
2023/06/09 05:18:53;;;;;;;17.23;8.02;;;13.20;99.90;;;;;;6274640;22;20464;-76
2023/06/09 05:21:21;;;;;;;19.13;8.30;;;13.30;99.90;;;;;;6224875;22;20338;-76
2023/06/09 05:23:47;;;;;;;23.35;9.07;;;13.40;99.90;;;;;;6223608;22;20053;-76
2023/06/09 05:26:13;;;;;;;20.73;8.90;;;13.40;99.90;;;;;;6249525;22;20086;-76
2023/06/09 05:28:38;;;;;;;17.77;8.75;;;13.50;99.90;;;;;;6300243;22;20390;-75
2023/06/09 05:31:04;;;;;;;19.38;8.65;;;13.50;99.90;;;;;;6275144;22;20099;-76
2023/06/09 05:33:30;;;;;;;16.30;6.93;;;13.70;99.90;;;;;;6274072;22;20011;-75
2023/06/09 05:35:56;;;;;;;19.52;9.27;;;13.70;99.90;;;;;;6300319;22;20465;-76
2023/06/09 05:38:23;;;;;;;21.45;8.70;;;13.80;99.90;;;;;;6300307;22;20450;-76
2023/06/09 05:40:49;;;;;;;16.75;9.43;;;13.80;99.90;;;;;;6223209;22;20026;-75
2023/06/09 05:43:15;;;;;;;19.95;9.27;;;13.80;99.90;;;;;;6300411;22;20016;-75
2023/06/09 05:45:40;;;;;;;21.15;8.35;;;14.00;99.90;;;;;;6300204;22;20099;-76
2023/06/09 05:48:06;;;;;;;21.98;9.27;;;14.10;99.90;;;;;;6300656;22;20011;-75
2023/06/09 05:50:32;;;;;;;21.52;9.23;;;14.10;99.90;;;;;;6299631;22;20057;-75
2023/06/09 05:52:57;;;;;;;18.88;9.45;;;14.30;99.90;;;;;;6274832;22;20069;-75
2023/06/09 05:55:23;;;;;;;20.38;9.82;;;14.30;99.90;;;;;;6300219;22;20011;-75
2023/06/09 05:57:48;;;;;;;19.60;9.52;;;14.40;99.90;;;;;;6249288;22;20115;-75
2023/06/09 06:00:15;;;;;;;22.25;10.65;;;14.40;99.90;;;;;;6299853;22;20015;-75
2023/06/09 06:02:42;;;;;;;18.20;9.07;;;14.60;99.90;;;;;;6249196;22;20012;-75
2023/06/09 06:05:09;;;;;;;15.50;9.07;;;14.70;99.90;;;;;;6274427;22;20082;-75
2023/06/09 06:07:36;;;;;;;20.73;8.90;;;14.90;99.90;;;;;;6223221;22;20042;-75
2023/06/09 06:10:03;;;;;;;21.75;8.90;;;14.90;99.90;;;;;;6222415;22;20016;-76
2023/06/09 06:12:30;;;;;;;21.90;10.82;;;15.00;99.90;;;;;;6249230;22;20093;-76
2023/06/09 06:14:55;;;;;;;22.23;10.93;;;15.10;99.90;;;;;;6248254;22;20572;-75
2023/06/09 06:17:21;;;;;;;17.48;9.75;;;15.20;99.90;;;;;;6223981;22;20051;-76
2023/06/09 06:19:46;;;;;;;20.13;10.68;;;15.30;99.90;;;;;;6248473;22;20468;-75
2023/06/09 06:22:12;;;;;;;18.00;10.10;;;15.40;99.90;;;;;;6223745;22;20015;-76
2023/06/09 06:24:38;;;;;;;18.10;9.45;;;15.50;99.90;;;;;;6247654;22;20010;-77
2023/06/09 06:27:04;;;;;;;22.33;9.75;;;15.70;99.90;;;;;;6295617;22;20058;-76
2023/06/09 06:29:30;;;;;;;20.27;10.95;;;15.60;99.90;;;;;;6248739;22;20014;-76
2023/06/09 06:31:56;;;;;;;20.02;10.18;;;15.70;99.90;;;;;;6248971;22;20023;-75
2023/06/09 06:34:21;;;;;;;20.40;9.60;;;15.80;99.90;;;;;;6223041;22;20011;-75
2023/06/09 06:36:47;;;;;;;20.40;10.95;;;15.90;99.90;;;;;;6300284;22;20347;-75
2023/06/09 06:39:13;;;;;;;21.20;10.52;;;16.10;99.90;;;;;;6248460;22;20014;-75
2023/06/09 06:41:39;;;;;;;22.38;10.05;;;16.20;99.90;;;;;;6222849;22;20315;-75
2023/06/09 06:44:05;;;;;;;21.13;9.57;;;16.30;99.90;;;;;;6222321;22;20008;-75
2023/06/09 06:46:31;;;;;;;18.00;9.02;;;16.50;99.90;;;;;;6274522;22;20015;-77
2023/06/09 06:48:57;;;;;;;16.73;9.20;;;16.60;99.90;;;;;;6223296;22;20012;-76
2023/06/09 06:51:23;;;;;;;18.23;9.02;;;16.60;99.90;;;;;;6274936;22;20020;-76
2023/06/09 06:53:48;;;;;;;17.88;10.52;;;16.60;99.90;;;;;;6302206;22;20086;-76
2023/06/09 06:56:14;;;;;;;20.33;9.23;;;16.70;99.90;;;;;;6251181;22;20090;-76
2023/06/09 06:58:40;;;;;;;14.27;8.45;;;16.90;99.90;;;;;;6277024;22;20012;-76
2023/06/09 07:01:05;;;;;;;20.23;9.65;;;16.90;99.90;;;;;;6302317;22;20450;-76
2023/06/09 07:03:35;;;;;;;16.75;9.35;;;17.00;99.90;;;;;;6276348;22;20019;-76
2023/06/09 07:06:01;;;;;;;17.00;8.82;;;17.00;99.90;;;;;;6276507;22;20090;-77
2023/06/09 07:08:27;;;;;;;16.23;8.73;;;17.10;99.90;;;;;;6226109;22;20012;-77
2023/06/09 07:10:53;;;;;;;15.98;8.25;;;17.20;99.90;;;;;;6250363;22;20087;-77
2023/06/09 07:13:18;;;;;;;16.80;9.15;;;17.20;99.90;;;;;;6251368;22;20011;-76
2023/06/09 07:15:44;;;;;;;16.30;9.40;;;17.30;99.90;;;;;;6302548;22;20385;-76
2023/06/09 07:18:11;;;;;;;16.38;8.60;;;17.30;99.90;;;;;;6251253;22;20019;-77
2023/06/09 07:20:36;;;;;;;19.65;9.90;;;17.50;99.90;;;;;;6225128;22;20027;-76
2023/06/09 07:23:02;;;;;;;17.08;7.82;;;17.50;99.90;;;;;;6251031;22;20016;-76
2023/06/09 07:25:27;;;;;;;14.88;8.35;;;17.60;99.90;;;;;;6276009;22;20015;-76
2023/06/09 07:27:53;;;;;;;21.35;8.88;;;17.70;99.90;;;;;;6251291;22;20008;-77
2023/06/09 07:30:18;;;;;;;16.73;8.38;;;17.80;99.90;;;;;;6275916;22;20020;-77
2023/06/09 07:32:44;;;;;;;15.18;7.70;;;17.80;99.90;;;;;;6276668;22;20015;-76
2023/06/09 07:35:13;;;;;;;16.40;7.57;;;17.90;99.90;;;;;;6275990;22;20015;-76
2023/06/09 07:37:42;;;;;;;14.43;7.60;;;18.00;99.90;;;;;;6225889;22;20091;-76
2023/06/09 07:40:11;;;;;;;18.77;8.23;;;18.20;99.90;;;;;;6301742;22;20015;-77
2023/06/09 07:42:37;;;;;;;14.25;5.85;;;18.30;99.90;;;;;;6225559;22;20453;-76
2023/06/09 07:45:03;;;;;;;14.85;6.88;;;18.40;99.90;;;;;;6275113;22;20127;-77
2023/06/09 07:47:29;;;;;;;14.55;6.70;;;18.50;99.90;;;;;;6250750;22;20008;-77
2023/06/09 07:49:54;;;;;;;17.40;7.15;;;18.50;99.90;;;;;;6249598;22;20398;-77
2023/06/09 07:52:20;;;;;;;16.83;6.50;;;18.60;99.90;;;;;;6276584;22;20008;-77
2023/06/09 07:54:46;;;;;;;16.05;7.10;;;18.70;99.90;;;;;;6249868;22;20466;-77
2023/06/09 07:57:11;;;;;;;13.05;6.75;;;18.70;99.90;;;;;;6276499;22;20054;-77
2023/06/09 07:59:37;;;;;;;14.10;6.50;;;18.80;99.90;;;;;;6301734;22;20500;-77
2023/06/09 08:02:03;;;;;;;15.98;7.10;;;18.90;99.90;;;;;;6250748;22;20011;-76
2023/06/09 08:04:29;;;;;;;16.45;6.78;;;19.00;99.90;;;;;;6249255;22;20086;-82
2023/06/09 08:06:58;;;;;;;13.00;5.97;;;19.00;99.90;;;;;;6249105;22;20023;-82
2023/06/09 08:09:25;;;;;;;10.48;4.90;;;19.10;99.90;;;;;;6224286;22;20012;-82
2023/06/09 08:11:50;;;;;;;13.00;5.80;;;19.30;99.90;;;;;;6225009;22;20011;-83
2023/06/09 08:14:17;;;;;;;13.68;5.88;;;19.40;99.90;;;;;;6300854;22;20421;-77
2023/06/09 08:16:43;;;;;;;12.20;5.35;;;19.50;99.90;;;;;;6275653;22;20015;-77
2023/06/09 08:19:09;;;;;;;12.88;6.15;;;19.70;99.90;;;;;;6225272;22;20460;-78
2023/06/09 08:21:42;;;;;;;13.75;5.30;;;19.90;99.90;;;;;;6249637;22;20012;-77
2023/06/09 08:24:08;;;;;;;11.45;6.43;;;20.00;99.90;;;;;;6224873;22;20014;-77
2023/06/09 08:26:34;;;;;;;14.73;5.43;;;20.20;99.90;;;;;;6301889;22;20039;-77
2023/06/09 08:29:01;;;;;;;13.05;5.20;;;20.40;99.90;;;;;;6250538;22;20334;-77
2023/06/09 08:31:27;;;;;;;15.98;5.30;;;20.50;99.90;;;;;;6224707;22;20012;-76
2023/06/09 08:33:54;;;;;;;12.45;5.10;;;20.60;99.90;;;;;;6275889;22;20004;-76
2023/06/09 08:36:20;;;;;;;16.05;5.63;;;20.70;99.90;;;;;;6250368;22;20041;-76
2023/06/09 08:38:46;;;;;;;13.30;5.75;;;20.80;99.90;;;;;;6250510;22;20012;-77
2023/06/09 08:41:14;;;;;;;13.63;5.47;;;21.00;99.90;;;;;;6224645;22;20094;-76
2023/06/09 08:43:40;;;;;;;13.77;5.65;;;21.00;99.90;;;;;;6250323;22;20050;-77
2023/06/09 08:46:08;;;;;;;14.35;5.57;;;21.10;99.90;;;;;;6274203;22;20016;-76
2023/06/09 08:48:37;;;;;;;24.50;6.43;;;21.20;99.90;;;;;;6225053;22;20011;-76
2023/06/09 08:51:03;;;;;;;13.10;4.55;;;21.30;99.90;;;;;;6250479;22;20008;-76
2023/06/09 08:53:31;;;;;;;11.80;5.38;;;21.40;99.90;;;;;;6301774;22;20065;-76
2023/06/09 08:55:59;;;;;;;14.93;5.55;;;21.50;99.90;;;;;;6249717;22;20066;-76
2023/06/09 08:58:25;;;;;;;13.15;5.80;;;21.70;99.90;;;;;;6249295;22;20012;-76
2023/06/09 09:00:52;;;;;;;14.18;5.70;;;21.80;99.90;;;;;;6224560;22;20012;-76
2023/06/09 09:03:18;;;;;;;14.05;5.53;;;21.80;99.90;;;;;;6224893;22;20015;-76
2023/06/09 09:05:44;;;;;;;13.25;5.20;;;21.90;99.90;;;;;;6274608;22;20048;-81
2023/06/09 09:08:12;;;;;;;18.63;6.05;;;22.00;99.90;;;;;;6225045;22;20282;-80
2023/06/09 09:10:40;;;;;;;11.35;4.47;;;22.10;99.90;;;;;;6249762;22;20011;-81
2023/06/09 09:13:08;;;;;;;12.00;5.00;;;22.20;99.90;;;;;;6224941;22;20069;-76
2023/06/09 09:15:34;;;;;;;14.95;5.10;;;22.30;99.90;;;;;;6223330;22;20141;-76
2023/06/09 09:18:00;;;;;;;12.07;6.63;;;22.50;99.90;;;;;;6250058;22;20047;-78
2023/06/09 09:20:35;;;;;;;14.80;5.47;;;22.50;99.90;;;;;;6249624;22;20074;-77
2023/06/09 09:23:04;;;;;;;13.05;5.13;;;22.50;99.90;;;;;;6249578;22;20503;-77
2023/06/09 09:25:30;;;;;;;16.60;6.32;;;22.60;99.90;;;;;;6224160;22;20008;-78
2023/06/09 09:28:04;;;;;;;11.70;4.82;;;22.70;99.90;;;;;;6249807;22;20022;-78
2023/06/09 09:30:43;;;;;;;12.45;5.68;;;22.80;99.90;;;;;;6248847;22;20007;-82
2023/06/09 09:33:10;;;;;;;11.02;5.32;;;22.90;99.90;;;;;;6224661;22;20450;-82
2023/06/09 09:35:38;;;;;;;11.18;5.28;;;23.00;99.90;;;;;;6224185;22;20016;-88
2023/06/09 09:38:04;;;;;;;12.32;5.30;;;23.00;99.90;;;;;;6249802;22;20480;-85
2023/06/09 09:40:29;;;;;;;12.13;5.25;;;23.10;99.90;;;;;;6224297;22;20008;-83
2023/06/09 09:43:00;;;;;;;11.98;5.47;;;23.10;99.90;;;;;;6301071;22;20461;-84
2023/06/09 09:45:26;;;;;;;11.65;5.20;;;23.20;99.90;;;;;;6223852;22;20074;-83
2023/06/09 09:47:52;;;;;;;12.02;5.25;;;23.20;99.90;;;;;;6300856;22;20050;-84
2023/06/09 09:50:24;;;;;;;11.68;6.28;;;23.40;99.90;;;;;;6275317;22;20012;-77
2023/06/09 09:52:51;;;;;;;12.75;5.00;;;23.50;99.90;;;;;;6274352;22;20353;-76
2023/06/09 09:55:16;;;;;;;11.57;5.13;;;23.60;99.90;;;;;;6223924;22;20098;-76
2023/06/09 09:57:44;;;;;;;14.75;4.75;;;23.80;99.90;;;;;;6300792;22;20488;-76
2023/06/09 10:00:12;;;;;;;13.52;4.60;;;23.80;99.90;;;;;;6224460;22;20018;-76
2023/06/09 10:02:42;;;;;;;10.35;5.63;;;24.00;99.90;;;;;;6224329;22;20015;-76
2023/06/09 10:05:10;;;;;;;11.75;4.93;;;24.00;99.90;;;;;;6249260;22;20073;-76
2023/06/09 10:07:40;;;;;;;13.90;4.72;;;24.00;99.90;;;;;;6223617;22;20353;-76
2023/06/09 10:10:08;;;;;;;9.57;4.70;;;24.10;99.90;;;;;;6275226;22;20408;-76
2023/06/09 10:12:36;;;;;;;13.45;4.78;;;24.20;99.90;;;;;;6224351;22;20022;-77
2023/06/09 10:15:04;;;;;;;10.00;4.47;;;24.30;99.90;;;;;;6248678;22;20027;-76
2023/06/09 10:17:30;;;;;;;8.90;4.70;;;24.40;99.90;;;;;;6223717;22;20342;-77
2023/06/09 10:19:57;;;;;;;11.85;5.03;;;24.50;99.90;;;;;;6249152;22;20019;-76
2023/06/09 10:22:23;;;;;;;9.65;4.40;;;24.50;99.90;;;;;;6224311;22;20015;-76
2023/06/09 10:24:50;;;;;;;9.27;4.35;;;24.60;99.90;;;;;;6249137;22;20007;-76
2023/06/09 10:27:16;;;;;;;11.93;5.05;;;24.70;99.90;;;;;;6247810;22;20341;-76
2023/06/09 10:29:42;;;;;;;14.90;5.00;;;24.70;99.90;;;;;;6274959;22;20008;-76
2023/06/09 10:32:11;;;;;;;10.80;4.50;;;24.80;99.90;;;;;;6274090;22;20065;-76
2023/06/09 10:34:38;;;;;;;10.90;4.93;;;24.80;99.90;;;;;;6300272;22;20038;-77
2023/06/09 10:37:04;;;;;;;10.77;4.95;;;24.90;99.90;;;;;;6223623;22;20018;-76
2023/06/09 10:39:52;;;;;;;10.57;4.45;;;25.00;99.90;;;;;;6300080;22;20008;-76
2023/06/09 10:42:35;;;;;;;12.05;4.40;;;25.10;99.80;;;;;;6300153;22;20058;-77
2023/06/09 10:45:13;;;;;;;9.38;4.85;;;25.20;99.90;;;;;;6224568;22;20008;-77
2023/06/09 10:47:49;;;;;;;9.98;4.32;;;25.30;99.90;;;;;;6249290;22;20039;-76
2023/06/09 10:50:22;;;;;;;9.38;4.68;;;25.30;99.90;;;;;;6224281;22;20004;-75
2023/06/09 10:52:58;;;;;;;11.10;5.15;;;25.50;99.80;;;;;;6274907;22;20464;-76
2023/06/09 10:55:28;;;;;;;8.85;4.22;;;25.60;96.50;;;;;;6249875;22;20016;-76
2023/06/09 10:57:55;;;;;;;10.18;4.45;;;25.70;97.70;;;;;;6248468;22;20516;-76
2023/06/09 11:00:22;;;;;;;11.45;4.70;;;25.70;99.30;;;;;;6222056;22;20019;-76
2023/06/09 11:02:52;;;;;;;10.15;4.25;;;25.70;98.50;;;;;;6223073;22;20091;-77
2023/06/09 11:05:20;;;;;;;9.52;4.25;;;25.70;99.10;;;;;;6223340;22;20008;-77
2023/06/09 11:07:51;;;;;;;9.73;4.95;;;25.80;95.70;;;;;;6224017;22;20103;-76
2023/06/09 11:10:19;;;;;;;10.13;4.97;;;25.70;91.50;;;;;;6224036;22;20074;-77
2023/06/09 11:12:50;;;;;;;10.20;5.00;;;25.80;92.90;;;;;;6224009;22;20015;-76
2023/06/09 11:15:16;;;;;;;10.82;5.00;;;25.80;95.60;;;;;;6300716;22;20342;-76
2023/06/09 11:17:44;;;;;;;9.52;4.90;;;25.90;92.90;;;;;;6248768;22;20050;-76
2023/06/09 11:20:09;;;;;;;8.85;4.65;;;25.90;95.30;;;;;;6223932;22;20011;-76
2023/06/09 11:22:41;;;;;;;10.38;4.43;;;26.00;93.90;;;;;;6223837;22;20508;-76
2023/06/09 11:25:11;;;;;;;8.20;4.30;;;26.00;93.80;;;;;;6224097;22;20040;-76
2023/06/09 11:27:36;;;;;;;9.27;5.30;;;26.10;93.90;;;;;;6249092;22;20066;-76
2023/06/09 11:30:09;;;;;;;6.80;4.10;;;26.20;92.80;;;;;;6274779;22;20011;-76
2023/06/09 11:32:45;;;;;;;8.32;4.60;;;26.30;91.30;;;;;;6248961;22;20460;-79
2023/06/09 11:35:31;;;;;;;8.48;4.60;;;26.30;90.40;;;;;;6223889;22;20011;-76
2023/06/09 11:38:18;;;;;;;8.63;4.70;;;26.30;89.00;;;;;;6223224;22;20019;-75
2023/06/09 11:40:52;;;;;;;9.48;4.25;;;26.30;90.90;;;;;;6225754;22;20015;-75
2023/06/09 11:43:21;;;;;;;12.82;4.40;;;26.30;92.20;;;;;;6225085;22;20445;-86
2023/06/09 11:45:47;;;;;;;9.73;4.38;;;26.40;90.10;;;;;;6225512;22;20015;-75
2023/06/09 11:48:12;;;;;;;8.38;4.50;;;26.50;87.60;;;;;;6276514;22;20031;-76
2023/06/09 11:50:39;;;;;;;11.82;4.60;;;26.40;90.70;;;;;;6250209;22;20090;-76
2023/06/09 11:53:10;;;;;;;11.25;4.63;;;26.50;89.10;;;;;;6249935;22;20008;-75
2023/06/09 11:55:35;;;;;;;11.85;5.00;;;26.50;83.80;;;;;;6225523;22;20094;-75
2023/06/09 11:58:02;;;;;;;10.48;4.78;;;26.50;90.00;;;;;;6250047;22;20101;-75
2023/06/09 12:00:30;;;;;;;8.27;4.80;;;26.60;84.10;;;;;;6225644;22;20095;-75
2023/06/09 12:02:56;;;;;;;9.52;4.43;;;26.60;88.30;;;;;;6225421;22;20015;-75
2023/06/09 12:05:23;;;;;;;9.98;4.90;;;26.60;86.80;;;;;;6224923;22;20012;-74
2023/06/09 12:07:51;;;;;;;9.95;4.90;;;26.60;82.50;;;;;;6250322;22;20134;-75
2023/06/09 12:10:20;;;;;;;11.10;5.07;;;26.60;87.50;;;;;;6225356;22;20414;-74
2023/06/09 12:12:47;;;;;;;9.90;4.80;;;26.60;80.40;;;;;;6225448;22;20059;-75
2023/06/09 12:15:15;;;;;;;9.00;4.93;;;26.60;89.50;;;;;;6250249;22;20007;-75
2023/06/09 12:17:42;;;;;;;10.20;4.80;;;26.70;80.90;;;;;;6250141;22;20014;-75
2023/06/09 12:20:21;;;;;;;10.25;4.65;;;26.60;86.30;;;;;;6250068;22;20008;-75
2023/06/09 12:22:51;;;;;;;9.40;4.88;;;26.60;85.40;;;;;;6250436;22;20016;-75
2023/06/09 12:25:25;;;;;;;10.45;4.80;;;26.60;88.80;;;;;;6224870;22;20015;-75
2023/06/09 12:27:51;;;;;;;10.20;4.90;;;26.60;88.60;;;;;;6224411;22;20008;-76
2023/06/09 12:30:36;;;;;;;10.68;5.03;;;26.70;85.10;;;;;;6224312;22;20011;-75
2023/06/09 12:33:13;;;;;;;10.35;4.90;;;26.70;85.10;;;;;;6249495;22;20011;-76
2023/06/09 12:35:44;;;;;;;9.27;5.00;;;26.70;86.30;;;;;;6240262;22;20020;-76
2023/06/09 12:38:26;;;;;;;10.67;5.40;;;26.70;82.60;;;;;;6250166;22;20011;-75
2023/06/09 12:41:02;;;;;;;9.48;5.03;;;26.60;85.50;;;;;;6249103;22;20567;-76
2023/06/09 12:43:41;;;;;;;8.55;4.78;;;26.60;85.20;;;;;;6224094;22;20059;-75